Time;durP1;ratioP1;P1;durP2;ratioP2;P2;SDS_P1;SDS_P2;PMS_P1;PMS_P2;Temp;Humidity;BMP_temperature;BMP_pressure;BME280_temperature;BME280_humidity;BME280_pressure;Samples;Min_cycle;Max_cycle;Signal;HPM_P1;HPM_P2
2021/05/09 00:01:25;;;;;;;2.42;1.90;;;;;;;;;;10297348;28;20106;-58
2021/05/09 00:06:23;;;;;;;2.53;2.30;;;;;;;;;;10316825;28;20118;-58
2021/05/09 00:11:22;;;;;;;2.95;1.98;;;;;;;;;;10295063;28;20548;-57
2021/05/09 00:16:19;;;;;;;2.67;2.03;;;;;;;;;;10276692;28;20166;-59
2021/05/09 00:21:16;;;;;;;3.35;2.00;;;;;;;;;;10276480;28;20080;-58
2021/05/09 00:26:14;;;;;;;2.30;2.10;;;;;;;;;;10276129;28;20072;-59
2021/05/09 00:31:12;;;;;;;2.83;2.00;;;;;;;;;;10276152;28;20041;-59
2021/05/09 00:36:09;;;;;;;4.45;2.30;;;;;;;;;;10276231;28;20064;-59
2021/05/09 00:41:07;;;;;;;3.13;2.20;;;;;;;;;;10276577;28;20092;-59
2021/05/09 00:46:04;;;;;;;3.03;2.72;;;;;;;;;;10275786;28;20049;-59
2021/05/09 00:51:03;;;;;;;2.88;2.33;;;;;;;;;;10275559;28;20033;-59
2021/05/09 00:56:01;;;;;;;3.55;2.40;;;;;;;;;;10275555;28;20486;-59
2021/05/09 01:01:00;;;;;;;4.93;2.35;;;;;;;;;;10275627;28;20156;-58
2021/05/09 01:05:59;;;;;;;2.85;2.20;;;;;;;;;;10275095;28;20198;-58
2021/05/09 01:10:59;;;;;;;2.65;2.45;;;;;;;;;;10275044;28;20049;-57
2021/05/09 01:15:57;;;;;;;3.30;2.60;;;;;;;;;;10279619;28;20080;-59
2021/05/09 01:20:55;;;;;;;2.75;2.53;;;;;;;;;;10282965;28;20513;-60
2021/05/09 01:25:53;;;;;;;3.50;2.50;;;;;;;;;;10282861;28;20163;-59
2021/05/09 01:30:51;;;;;;;2.85;2.40;;;;;;;;;;10283324;28;20045;-59
2021/05/09 01:35:49;;;;;;;4.05;2.95;;;;;;;;;;10283148;28;20056;-60
2021/05/09 01:40:47;;;;;;;4.55;2.60;;;;;;;;;;10282473;28;20081;-58
2021/05/09 01:45:45;;;;;;;7.55;2.40;;;;;;;;;;10282313;28;20166;-59
2021/05/09 01:50:43;;;;;;;3.85;2.60;;;;;;;;;;10281928;28;20077;-58
2021/05/09 01:55:41;;;;;;;3.55;2.78;;;;;;;;;;10281712;28;20071;-58
2021/05/09 02:00:45;;;;;;;3.30;2.80;;;;;;;;;;10280816;28;20080;-59
2021/05/09 02:05:53;;;;;;;3.80;2.40;;;;;;;;;;10280510;28;20342;-60
2021/05/09 02:10:51;;;;;;;3.45;2.60;;;;;;;;;;10280773;28;20041;-58
2021/05/09 02:15:49;;;;;;;3.55;2.55;;;;;;;;;;10281155;28;20048;-58
2021/05/09 02:20:47;;;;;;;2.97;2.55;;;;;;;;;;10280446;28;20103;-58
2021/05/09 02:25:45;;;;;;;2.70;2.50;;;;;;;;;;10279954;28;20044;-59
2021/05/09 02:30:43;;;;;;;3.65;3.00;;;;;;;;;;10279926;28;20422;-59
2021/05/09 02:35:44;;;;;;;5.60;2.70;;;;;;;;;;10279821;28;20056;-53
2021/05/09 02:40:42;;;;;;;4.75;2.47;;;;;;;;;;10280519;28;20095;-57
2021/05/09 02:45:40;;;;;;;3.67;2.92;;;;;;;;;;10279330;28;20052;-58
2021/05/09 02:50:38;;;;;;;2.97;2.65;;;;;;;;;;10279643;28;20135;-58
2021/05/09 02:55:37;;;;;;;4.68;3.17;;;;;;;;;;10279416;28;20103;-59
2021/05/09 03:00:34;;;;;;;4.85;2.47;;;;;;;;;;10278153;28;20119;-59
2021/05/09 03:05:42;;;;;;;3.65;3.13;;;;;;;;;;10278737;28;20045;-59
2021/05/09 03:10:41;;;;;;;4.18;2.97;;;;;;;;;;10279488;28;20068;-59
2021/05/09 03:15:38;;;;;;;2.80;2.60;;;;;;;;;;10278569;28;20048;-59
2021/05/09 03:20:37;;;;;;;4.20;3.20;;;;;;;;;;10278961;28;20502;-59
2021/05/09 03:25:34;;;;;;;4.35;3.63;;;;;;;;;;10278809;28;20060;-59
2021/05/09 03:30:32;;;;;;;4.72;3.05;;;;;;;;;;10278758;28;20075;-59
2021/05/09 03:35:30;;;;;;;9.30;4.88;;;;;;;;;;10287224;28;20123;-59
2021/05/09 03:40:28;;;;;;;8.82;4.72;;;;;;;;;;10309413;28;20068;-59
2021/05/09 03:45:25;;;;;;;5.88;3.67;;;;;;;;;;10290475;28;20075;-59
2021/05/09 03:50:24;;;;;;;6.47;4.10;;;;;;;;;;10288602;28;20469;-59
2021/05/09 03:55:21;;;;;;;10.57;4.90;;;;;;;;;;10291127;28;20072;-59
2021/05/09 04:00:19;;;;;;;6.60;3.58;;;;;;;;;;10304990;28;20083;-59
2021/05/09 04:05:16;;;;;;;2.45;2.25;;;;;;;;;;10289517;28;20099;-59
2021/05/09 04:10:15;;;;;;;2.40;2.10;;;;;;;;;;10289994;28;20057;-58
2021/05/09 04:15:12;;;;;;;2.67;2.47;;;;;;;;;;10303659;28;20068;-59
2021/05/09 04:20:10;;;;;;;3.38;2.78;;;;;;;;;;10293636;28;20095;-59
2021/05/09 04:25:08;;;;;;;4.93;2.70;;;;;;;;;;10307047;28;20080;-59
2021/05/09 04:30:08;;;;;;;3.38;2.13;;;;;;;;;;10285184;28;20064;-59
2021/05/09 04:35:05;;;;;;;7.88;2.20;;;;;;;;;;10286231;28;20052;-58
2021/05/09 04:40:03;;;;;;;2.97;2.30;;;;;;;;;;10293375;28;20064;-58
2021/05/09 04:45:00;;;;;;;2.58;2.38;;;;;;;;;;10281982;28;20466;-59
2021/05/09 04:49:58;;;;;;;4.07;2.40;;;;;;;;;;10301439;28;20445;-59
2021/05/09 04:54:56;;;;;;;5.20;2.75;;;;;;;;;;10316204;28;20060;-59
2021/05/09 04:59:53;;;;;;;11.05;8.55;;;;;;;;;;10316425;28;20536;-59
2021/05/09 05:04:50;;;;;;;3.13;2.10;;;;;;;;;;10316987;28;20051;-59
2021/05/09 05:09:49;;;;;;;3.85;2.67;;;;;;;;;;10316804;28;20044;-59
2021/05/09 05:14:46;;;;;;;2.75;2.13;;;;;;;;;;10297339;28;20115;-59
2021/05/09 05:19:44;;;;;;;2.92;2.22;;;;;;;;;;10307031;28;20501;-59
2021/05/09 05:24:41;;;;;;;4.20;2.72;;;;;;;;;;10296158;28;20527;-58
2021/05/09 05:29:39;;;;;;;2.17;1.98;;;;;;;;;;10275568;28;20045;-59
2021/05/09 05:34:37;;;;;;;3.30;2.60;;;;;;;;;;10290623;28;20080;-59
2021/05/09 05:39:34;;;;;;;6.93;2.90;;;;;;;;;;10316196;28;20041;-59
2021/05/09 05:44:31;;;;;;;4.93;2.78;;;;;;;;;;10303956;28;20075;-59
2021/05/09 05:49:30;;;;;;;8.85;2.72;;;;;;;;;;10299289;28;20527;-59
2021/05/09 05:54:28;;;;;;;7.47;2.80;;;;;;;;;;10274871;28;20521;-58
2021/05/09 05:59:25;;;;;;;2.72;2.47;;;;;;;;;;10292281;28;20593;-62
2021/05/09 06:04:22;;;;;;;4.25;2.40;;;;;;;;;;10275342;28;20454;-62
2021/05/09 06:09:21;;;;;;;6.47;2.10;;;;;;;;;;10304755;28;20056;-63
2021/05/09 06:14:18;;;;;;;1.60;1.50;;;;;;;;;;10314888;28;20068;-63
2021/05/09 06:19:21;;;;;;;3.38;2.63;;;;;;;;;;10288690;28;20102;-63
2021/05/09 06:24:19;;;;;;;3.42;2.00;;;;;;;;;;10281298;28;20092;-63
2021/05/09 06:29:17;;;;;;;2.22;1.65;;;;;;;;;;10281409;28;20073;-63
2021/05/09 06:34:15;;;;;;;5.93;3.00;;;;;;;;;;10281228;28;20052;-62
2021/05/09 06:39:12;;;;;;;2.40;2.20;;;;;;;;;;10281093;28;20041;-63
2021/05/09 06:44:11;;;;;;;2.47;1.90;;;;;;;;;;10280807;28;20059;-62
2021/05/09 06:49:09;;;;;;;4.05;2.08;;;;;;;;;;10280813;28;20056;-63
2021/05/09 06:54:07;;;;;;;2.65;2.30;;;;;;;;;;10280560;28;20041;-62
2021/05/09 06:59:04;;;;;;;6.97;1.95;;;;;;;;;;10279638;28;20049;-62
2021/05/09 07:04:01;;;;;;;5.28;2.13;;;;;;;;;;10280222;28;20084;-62
2021/05/09 07:08:59;;;;;;;4.10;1.65;;;;;;;;;;10278466;28;20052;-62
2021/05/09 07:13:57;;;;;;;2.28;1.35;;;;;;;;;;10278695;28;20056;-63
2021/05/09 07:18:55;;;;;;;2.40;1.40;;;;;;;;;;10279503;28;20438;-63
2021/05/09 07:23:52;;;;;;;6.85;4.88;;;;;;;;;;10279315;28;20083;-64
2021/05/09 07:28:51;;;;;;;5.47;2.38;;;;;;;;;;10279305;28;20064;-63
2021/05/09 07:33:48;;;;;;;2.90;1.55;;;;;;;;;;10278824;28;20041;-63
2021/05/09 07:38:45;;;;;;;2.40;1.75;;;;;;;;;;10279159;28;20045;-63
2021/05/09 07:43:45;;;;;;;2.13;1.45;;;;;;;;;;10278506;28;20080;-62
2021/05/09 07:48:43;;;;;;;2.22;1.50;;;;;;;;;;10278209;28;20037;-64
2021/05/09 07:53:41;;;;;;;3.45;1.90;;;;;;;;;;10277394;28;20045;-63
2021/05/09 07:58:38;;;;;;;2.88;1.52;;;;;;;;;;10277224;28;20091;-62
2021/05/09 08:03:36;;;;;;;4.05;1.98;;;;;;;;;;10277738;28;20080;-63
2021/05/09 08:08:34;;;;;;;9.75;1.77;;;;;;;;;;10277647;28;20048;-62
2021/05/09 08:13:31;;;;;;;2.38;1.63;;;;;;;;;;10287327;28;20068;-62
2021/05/09 08:18:29;;;;;;;6.88;2.20;;;;;;;;;;10277218;28;20482;-63
2021/05/09 08:23:26;;;;;;;3.72;3.10;;;;;;;;;;10282088;28;20087;-62
2021/05/09 08:28:24;;;;;;;11.20;3.53;;;;;;;;;;10283978;28;20077;-62
2021/05/09 08:33:22;;;;;;;1.75;1.33;;;;;;;;;;10287590;28;20049;-62
2021/05/09 08:38:20;;;;;;;4.38;3.20;;;;;;;;;;10276174;28;20076;-61
2021/05/09 08:43:17;;;;;;;2.42;1.80;;;;;;;;;;10286204;28;20106;-61
2021/05/09 08:48:19;;;;;;;1.95;1.33;;;;;;;;;;10279979;28;20458;-61
2021/05/09 08:53:17;;;;;;;9.15;4.40;;;;;;;;;;10292065;28;20084;-61
2021/05/09 08:58:15;;;;;;;2.10;1.77;;;;;;;;;;10288172;28;20068;-63
2021/05/09 09:03:13;;;;;;;3.45;1.52;;;;;;;;;;10281623;28;20064;-63
2021/05/09 09:08:13;;;;;;;9.68;7.18;;;;;;;;;;10295851;28;20580;-63
2021/05/09 09:13:21;;;;;;;2.83;2.35;;;;;;;;;;10286519;28;20049;-62
2021/05/09 09:18:28;;;;;;;2.17;1.60;;;;;;;;;;10288544;28;20075;-63
2021/05/09 09:23:42;;;;;;;2.53;1.60;;;;;;;;;;10296503;28;20076;-61
2021/05/09 09:28:39;;;;;;;2.60;1.42;;;;;;;;;;10289846;28;20068;-62
2021/05/09 09:33:49;;;;;;;2.58;1.40;;;;;;;;;;10288197;28;20040;-62
2021/05/09 09:38:58;;;;;;;13.05;2.08;;;;;;;;;;10303694;28;20513;-61
2021/05/09 09:44:00;;;;;;;1.65;1.52;;;;;;;;;;10253168;28;20057;-62
2021/05/09 09:49:00;;;;;;;2.40;1.83;;;;;;;;;;10293267;28;20548;-62
2021/05/09 09:53:59;;;;;;;4.32;1.05;;;;;;;;;;10303617;28;20072;-63
2021/05/09 09:58:57;;;;;;;6.05;1.42;;;;;;;;;;10280481;28;20072;-63
2021/05/09 10:03:55;;;;;;;2.72;2.20;;;;;;;;;;10293938;28;20442;-63
2021/05/09 10:08:53;;;;;;;3.42;1.40;;;;;;;;;;10297445;28;20076;-63
2021/05/09 10:13:52;;;;;;;2.55;1.52;;;;;;;;;;10295877;28;20064;-63
2021/05/09 10:18:51;;;;;;;3.97;1.80;;;;;;;;;;10279140;28;20076;-62
2021/05/09 10:24:07;;;;;;;4.72;1.50;;;;;;;;;;10276958;28;20069;-64
2021/05/09 10:29:05;;;;;;;4.45;1.73;;;;;;;;;;10277853;28;20056;-62
2021/05/09 10:34:02;;;;;;;1.92;1.73;;;;;;;;;;10290838;28;20068;-64
2021/05/09 10:39:16;;;;;;;1.55;1.20;;;;;;;;;;10279479;28;20572;-64
2021/05/09 10:44:31;;;;;;;1.30;1.15;;;;;;;;;;10284318;28;20169;-63
2021/05/09 10:49:29;;;;;;;4.38;1.60;;;;;;;;;;10288020;28;20520;-62
2021/05/09 10:54:27;;;;;;;2.00;1.30;;;;;;;;;;10283738;28;20504;-63
2021/05/09 10:59:39;;;;;;;2.28;1.20;;;;;;;;;;10287731;28;20473;-62
2021/05/09 11:04:50;;;;;;;1.55;1.20;;;;;;;;;;10298586;28;20068;-64
2021/05/09 11:09:47;;;;;;;1.60;1.50;;;;;;;;;;10279952;28;20081;-63
2021/05/09 11:14:44;;;;;;;2.83;1.80;;;;;;;;;;10293246;28;20076;-63
2021/05/09 11:19:44;;;;;;;1.27;1.10;;;;;;;;;;10305805;28;20086;-63
2021/05/09 11:24:42;;;;;;;4.15;1.40;;;;;;;;;;10276427;28;20107;-63
2021/05/09 11:29:41;;;;;;;1.63;1.33;;;;;;;;;;10294855;28;20079;-63
2021/05/09 11:34:39;;;;;;;3.58;1.67;;;;;;;;;;10313298;28;20083;-63
2021/05/09 11:39:37;;;;;;;2.08;1.63;;;;;;;;;;10315449;28;20071;-63
2021/05/09 11:44:37;;;;;;;3.67;1.40;;;;;;;;;;10317703;28;20072;-62
2021/05/09 11:49:35;;;;;;;1.52;1.23;;;;;;;;;;10317477;28;20079;-62
2021/05/09 11:54:33;;;;;;;3.38;1.45;;;;;;;;;;10317659;28;20040;-61
2021/05/09 11:59:35;;;;;;;2.08;1.30;;;;;;;;;;10317511;28;20506;-62
2021/05/09 12:04:33;;;;;;;3.90;1.20;;;;;;;;;;10318433;28;20080;-63
2021/05/09 12:09:31;;;;;;;4.68;1.30;;;;;;;;;;10318276;28;20041;-63
2021/05/09 12:14:29;;;;;;;3.45;1.42;;;;;;;;;;10316025;28;20087;-63
2021/05/09 12:19:28;;;;;;;6.60;1.70;;;;;;;;;;10314011;28;20079;-63
2021/05/09 12:24:27;;;;;;;1.30;1.13;;;;;;;;;;10313452;28;20469;-63
2021/05/09 12:29:24;;;;;;;4.13;1.80;;;;;;;;;;10313726;28;20535;-62
2021/05/09 12:34:26;;;;;;;1.85;1.30;;;;;;;;;;10317407;28;20079;-63
2021/05/09 12:39:23;;;;;;;1.20;1.10;;;;;;;;;;10317544;28;20052;-63
2021/05/09 12:44:22;;;;;;;22.98;7.60;;;;;;;;;;10317315;28;20079;-63
2021/05/09 12:49:20;;;;;;;7.32;2.50;;;;;;;;;;10317400;28;20473;-63
2021/05/09 12:54:37;;;;;;;10.05;2.40;;;;;;;;;;10315371;28;20409;-63
2021/05/09 12:59:45;;;;;;;4.65;1.40;;;;;;;;;;10316626;28;20056;-62
2021/05/09 13:04:46;;;;;;;2.17;1.67;;;;;;;;;;10317197;28;20072;-63
2021/05/09 13:09:44;;;;;;;28.20;25.33;;;;;;;;;;10317345;28;20468;-63
2021/05/09 13:14:42;;;;;;;1.42;1.30;;;;;;;;;;10325245;28;20068;-62
2021/05/09 13:19:42;;;;;;;2.20;1.60;;;;;;;;;;10324803;28;20041;-62
2021/05/09 13:24:43;;;;;;;2.75;1.10;;;;;;;;;;10324686;28;20076;-62
2021/05/09 13:29:41;;;;;;;5.63;1.70;;;;;;;;;;10322836;28;20414;-62
2021/05/09 13:34:39;;;;;;;2.50;1.70;;;;;;;;;;10324503;28;20040;-62
2021/05/09 13:39:37;;;;;;;2.42;2.03;;;;;;;;;;10324133;28;20040;-63
2021/05/09 13:44:34;;;;;;;2.30;1.50;;;;;;;;;;10323058;28;20078;-62
2021/05/09 13:49:32;;;;;;;2.50;1.85;;;;;;;;;;10323908;28;20071;-63
2021/05/09 13:54:29;;;;;;;9.35;2.83;;;;;;;;;;10323486;28;20095;-63
2021/05/09 13:59:27;;;;;;;10.20;1.67;;;;;;;;;;10322902;28;20521;-63
2021/05/09 14:04:25;;;;;;;4.55;1.85;;;;;;;;;;10323094;28;20080;-62
2021/05/09 14:09:22;;;;;;;1.77;1.20;;;;;;;;;;10323214;28;20076;-63
2021/05/09 14:14:20;;;;;;;3.28;1.25;;;;;;;;;;10322753;28;20040;-61
2021/05/09 14:19:18;;;;;;;3.63;2.15;;;;;;;;;;10321623;28;20045;-61
2021/05/09 14:24:15;;;;;;;1.45;1.13;;;;;;;;;;10321510;28;20505;-61
2021/05/09 14:29:13;;;;;;;5.80;3.63;;;;;;;;;;10322177;28;20044;-61
2021/05/09 14:34:10;;;;;;;2.95;1.55;;;;;;;;;;10322037;28;20044;-61
2021/05/09 14:39:08;;;;;;;4.43;1.85;;;;;;;;;;10321840;28;20051;-61
2021/05/09 14:44:06;;;;;;;4.38;1.63;;;;;;;;;;10321594;28;20114;-62
2021/05/09 14:49:03;;;;;;;4.38;1.35;;;;;;;;;;10321646;28;20032;-62
2021/05/09 14:54:01;;;;;;;3.55;2.30;;;;;;;;;;10321308;28;20052;-62
2021/05/09 14:58:59;;;;;;;3.03;2.30;;;;;;;;;;10320664;28;20095;-62
2021/05/09 15:03:56;;;;;;;2.00;1.80;;;;;;;;;;10320818;28;20445;-62
2021/05/09 15:08:54;;;;;;;3.20;1.88;;;;;;;;;;10319129;28;20076;-63
2021/05/09 15:13:53;;;;;;;7.25;1.45;;;;;;;;;;10320606;28;20068;-62
2021/05/09 15:18:55;;;;;;;3.25;1.65;;;;;;;;;;10320226;28;20080;-63
2021/05/09 15:23:52;;;;;;;5.50;2.28;;;;;;;;;;10319884;28;20516;-63
2021/05/09 15:28:50;;;;;;;5.13;2.47;;;;;;;;;;10319808;28;20048;-63
2021/05/09 15:33:48;;;;;;;3.00;2.05;;;;;;;;;;10318747;28;20036;-63
2021/05/09 15:38:46;;;;;;;4.60;3.05;;;;;;;;;;10318469;28;20044;-61
2021/05/09 15:43:45;;;;;;;2.35;1.70;;;;;;;;;;10319005;28;20075;-63
2021/05/09 15:48:43;;;;;;;2.45;1.90;;;;;;;;;;10319356;28;20091;-63
2021/05/09 15:53:40;;;;;;;5.82;2.22;;;;;;;;;;10318831;28;20044;-63
2021/05/09 15:58:38;;;;;;;3.38;1.65;;;;;;;;;;10318362;28;20052;-63
2021/05/09 16:03:35;;;;;;;2.33;1.55;;;;;;;;;;10318273;28;20084;-63
2021/05/09 16:08:33;;;;;;;1.98;1.77;;;;;;;;;;10318129;28;20072;-63
2021/05/09 16:13:30;;;;;;;7.93;2.38;;;;;;;;;;10317557;28;20063;-63
2021/05/09 16:18:31;;;;;;;3.05;1.42;;;;;;;;;;10317971;28;20087;-63
2021/05/09 16:23:29;;;;;;;1.73;1.50;;;;;;;;;;10317819;28;20080;-63
2021/05/09 16:28:26;;;;;;;3.28;1.98;;;;;;;;;;10317775;28;20048;-63
2021/05/09 16:33:23;;;;;;;4.22;1.95;;;;;;;;;;10317034;28;20041;-63
2021/05/09 16:38:22;;;;;;;9.20;2.50;;;;;;;;;;10317534;28;20048;-63
2021/05/09 16:43:19;;;;;;;4.30;2.80;;;;;;;;;;10317159;28;20076;-62
2021/05/09 16:48:16;;;;;;;2.38;1.77;;;;;;;;;;10316306;28;20048;-62
2021/05/09 16:53:17;;;;;;;6.32;2.03;;;;;;;;;;10317208;28;20055;-62
2021/05/09 16:58:15;;;;;;;6.82;3.13;;;;;;;;;;10316769;28;20067;-63
2021/05/09 17:03:13;;;;;;;7.10;4.18;;;;;;;;;;10316797;28;20075;-62
2021/05/09 17:08:11;;;;;;;5.68;3.28;;;;;;;;;;10316558;28;20053;-62
2021/05/09 17:13:09;;;;;;;2.65;1.85;;;;;;;;;;10316651;28;20071;-63
2021/05/09 17:18:07;;;;;;;3.30;2.28;;;;;;;;;;10316415;28;20044;-63
2021/05/09 17:23:04;;;;;;;5.20;3.65;;;;;;;;;;10316010;28;20056;-62
2021/05/09 17:28:01;;;;;;;5.65;2.80;;;;;;;;;;10316362;28;20040;-64
2021/05/09 17:33:14;;;;;;;4.18;1.73;;;;;;;;;;10315964;28;20040;-64
2021/05/09 17:38:14;;;;;;;3.00;1.90;;;;;;;;;;10315797;28;20375;-62
2021/05/09 17:43:11;;;;;;;4.30;2.03;;;;;;;;;;10315672;28;20102;-62
2021/05/09 17:48:09;;;;;;;3.20;1.80;;;;;;;;;;10302081;28;20064;-63
2021/05/09 17:53:07;;;;;;;3.90;1.83;;;;;;;;;;10314576;28;20080;-62
2021/05/09 17:58:05;;;;;;;2.28;1.65;;;;;;;;;;10318635;28;20056;-62
2021/05/09 18:03:03;;;;;;;3.60;2.20;;;;;;;;;;10342443;28;20106;-63
2021/05/09 18:08:01;;;;;;;2.25;2.00;;;;;;;;;;10343560;28;20055;-63
2021/05/09 18:12:59;;;;;;;3.08;2.13;;;;;;;;;;10285839;28;20064;-62
2021/05/09 18:18:06;;;;;;;2.13;1.73;;;;;;;;;;10279064;28;20084;-62
2021/05/09 18:23:04;;;;;;;3.40;2.08;;;;;;;;;;10323958;28;20086;-62
2021/05/09 18:28:02;;;;;;;4.43;2.15;;;;;;;;;;10361384;28;20083;-63
2021/05/09 18:33:00;;;;;;;7.45;1.65;;;;;;;;;;10363048;28;20040;-63
2021/05/09 18:37:58;;;;;;;2.53;2.33;;;;;;;;;;10362707;28;20048;-63
2021/05/09 18:42:56;;;;;;;3.67;2.20;;;;;;;;;;10362016;28;20040;-62
2021/05/09 18:47:54;;;;;;;4.72;2.00;;;;;;;;;;10362307;28;20048;-63
2021/05/09 18:52:51;;;;;;;2.50;1.88;;;;;;;;;;10360684;28;20047;-62
2021/05/09 18:57:49;;;;;;;7.28;1.52;;;;;;;;;;10360661;28;20106;-62
2021/05/09 19:02:46;;;;;;;7.10;2.13;;;;;;;;;;10359899;28;20078;-63
2021/05/09 19:07:44;;;;;;;3.33;1.60;;;;;;;;;;10360371;28;20550;-63
2021/05/09 19:12:43;;;;;;;2.13;1.40;;;;;;;;;;10360799;28;20481;-63
2021/05/09 19:17:41;;;;;;;1.75;1.45;;;;;;;;;;10359841;28;20110;-62
2021/05/09 19:22:38;;;;;;;1.80;1.50;;;;;;;;;;10360511;28;20044;-63
2021/05/09 19:27:39;;;;;;;4.20;1.83;;;;;;;;;;10360945;28;20048;-63
2021/05/09 19:32:37;;;;;;;2.63;1.75;;;;;;;;;;10359914;28;20067;-63
2021/05/09 19:37:34;;;;;;;1.95;1.58;;;;;;;;;;10359600;28;20048;-63
2021/05/09 19:42:32;;;;;;;7.35;1.92;;;;;;;;;;10359576;28;20523;-63
2021/05/09 19:47:37;;;;;;;2.47;1.48;;;;;;;;;;10358794;28;20075;-63
2021/05/09 19:52:35;;;;;;;2.90;1.88;;;;;;;;;;10357969;28;20079;-63
2021/05/09 19:57:32;;;;;;;3.03;1.65;;;;;;;;;;10358781;28;20090;-62
2021/05/09 20:02:31;;;;;;;3.75;1.90;;;;;;;;;;10358782;28;20047;-62
2021/05/09 20:07:31;;;;;;;6.50;2.10;;;;;;;;;;10358356;28;20076;-62
2021/05/09 20:12:28;;;;;;;1.83;1.52;;;;;;;;;;10358263;28;20058;-62
2021/05/09 20:17:27;;;;;;;3.97;2.13;;;;;;;;;;10357706;28;20102;-62
2021/05/09 20:22:26;;;;;;;3.45;2.83;;;;;;;;;;10357922;28;20075;-62
2021/05/09 20:27:24;;;;;;;4.95;2.30;;;;;;;;;;10358587;28;20083;-61
2021/05/09 20:32:22;;;;;;;4.53;2.88;;;;;;;;;;10357595;28;20052;-61
2021/05/09 20:37:20;;;;;;;7.20;2.33;;;;;;;;;;10353734;28;20341;-62
2021/05/09 20:42:19;;;;;;;3.33;2.22;;;;;;;;;;10351748;28;20068;-63
2021/05/09 20:47:16;;;;;;;3.50;2.70;;;;;;;;;;10353590;28;20086;-62
2021/05/09 20:52:14;;;;;;;2.97;1.85;;;;;;;;;;10354862;28;20499;-63
2021/05/09 20:57:11;;;;;;;5.30;2.13;;;;;;;;;;10357753;28;20364;-62
2021/05/09 21:02:09;;;;;;;3.10;2.50;;;;;;;;;;10358091;28;20061;-62
2021/05/09 21:07:07;;;;;;;4.43;1.63;;;;;;;;;;10357716;28;20071;-63
2021/05/09 21:12:04;;;;;;;5.28;2.40;;;;;;;;;;10357475;28;20048;-62
2021/05/09 21:17:02;;;;;;;6.40;4.75;;;;;;;;;;10357018;28;20088;-62
2021/05/09 21:22:00;;;;;;;2.80;2.17;;;;;;;;;;10357187;28;20053;-61
2021/05/09 21:26:58;;;;;;;2.58;2.00;;;;;;;;;;10357077;28;20067;-62
2021/05/09 21:32:02;;;;;;;3.75;1.60;;;;;;;;;;10359790;28;20047;-63
2021/05/09 21:37:01;;;;;;;2.85;1.70;;;;;;;;;;10364928;28;20044;-63
2021/05/09 21:41:58;;;;;;;2.03;1.77;;;;;;;;;;10364996;28;20138;-62
2021/05/09 21:46:55;;;;;;;5.55;2.03;;;;;;;;;;10364304;28;20072;-62
2021/05/09 21:51:53;;;;;;;4.30;1.70;;;;;;;;;;10365140;28;20069;-62
2021/05/09 21:56:51;;;;;;;5.13;1.75;;;;;;;;;;10363896;28;20040;-62
2021/05/09 22:01:49;;;;;;;3.75;2.10;;;;;;;;;;10364281;28;20048;-62
2021/05/09 22:06:46;;;;;;;2.67;2.00;;;;;;;;;;10363957;28;20068;-62
2021/05/09 22:11:43;;;;;;;3.22;1.48;;;;;;;;;;10363356;28;20063;-63
2021/05/09 22:16:42;;;;;;;1.92;1.70;;;;;;;;;;10363082;28;20505;-62
2021/05/09 22:21:39;;;;;;;5.07;2.38;;;;;;;;;;10363463;28;20055;-63
2021/05/09 22:26:37;;;;;;;3.97;2.60;;;;;;;;;;10363478;28;20079;-61
2021/05/09 22:31:34;;;;;;;6.85;3.92;;;;;;;;;;10363046;28;20507;-61
2021/05/09 22:36:32;;;;;;;4.15;2.88;;;;;;;;;;10362995;28;20044;-61
2021/05/09 22:41:30;;;;;;;1.95;1.40;;;;;;;;;;10362389;28;20048;-62
2021/05/09 22:46:27;;;;;;;6.45;2.45;;;;;;;;;;10360967;28;20048;-62
2021/05/09 22:51:25;;;;;;;2.63;2.05;;;;;;;;;;10361317;28;20066;-62
2021/05/09 22:56:23;;;;;;;3.13;2.30;;;;;;;;;;10362161;28;20078;-62
2021/05/09 23:01:20;;;;;;;2.63;1.48;;;;;;;;;;10361969;28;20063;-62
2021/05/09 23:06:18;;;;;;;4.53;2.42;;;;;;;;;;10360816;28;20080;-62
2021/05/09 23:11:15;;;;;;;1.77;1.63;;;;;;;;;;10360104;28;20067;-62
2021/05/09 23:16:14;;;;;;;2.50;2.03;;;;;;;;;;10361476;28;20594;-62
2021/05/09 23:26:27;;;;;;;;;;;;;;;;;;10361081;28;20111;-62
2021/05/09 23:31:25;;;;;;;1.73;1.50;;;;;;;;;;10360413;28;20041;-62
2021/05/09 23:36:22;;;;;;;2.92;1.88;;;;;;;;;;10360230;28;20067;-62
2021/05/09 23:41:20;;;;;;;4.57;1.98;;;;;;;;;;10360220;28;20036;-60
2021/05/09 23:46:17;;;;;;;2.15;1.63;;;;;;;;;;10359946;28;20473;-62
2021/05/09 23:51:16;;;;;;;1.52;1.33;;;;;;;;;;10358801;28;20539;-62
2021/05/09 23:56:14;;;;;;;5.25;2.58;;;;;;;;;;10358799;28;20039;-62
